Time;durP1;ratioP1;P1;durP2;ratioP2;P2;SDS_P1;SDS_P2;PMS_P1;PMS_P2;Temp;Humidity;BMP_temperature;BMP_pressure;BME280_temperature;BME280_humidity;BME280_pressure;Samples;Min_cycle;Max_cycle;Signal;HPM_P1;HPM_P2
2022/05/14 00:00:10;;;;;;;0.55;0.55;;;;;;;13.39;57.61;99046.50;4118483;28;20572;-57
2022/05/14 00:02:12;;;;;;;1.10;0.60;;;;;;;13.48;57.43;99056.81;4105903;28;20215;-57
2022/05/14 00:04:13;;;;;;;0.80;0.80;;;;;;;13.58;57.38;99050.59;4122474;28;20210;-56
2022/05/14 00:06:19;;;;;;;0.60;0.60;;;;;;;13.57;57.44;99044.25;4109078;28;20219;-55
2022/05/14 00:08:22;;;;;;;1.52;0.93;;;;;;;13.57;57.06;99038.75;4125466;28;20206;-55
2022/05/14 00:10:26;;;;;;;0.60;0.60;;;;;;;13.59;57.15;99036.59;4122423;28;20694;-56
2022/05/14 00:14:48;;;;;;;0.60;0.60;;;;;;;13.59;57.34;99044.84;4109028;28;20218;-60
2022/05/14 00:16:50;;;;;;;0.70;0.70;;;;;;;13.59;57.37;99042.09;4124098;28;20773;-56
2022/05/14 00:18:53;;;;;;;0.80;0.80;;;;;;;13.65;57.16;99041.09;4106496;28;20620;-55
2022/05/14 00:20:54;;;;;;;0.80;0.80;;;;;;;13.68;57.50;99040.56;4105996;28;20343;-55
2022/05/14 00:22:56;;;;;;;0.73;0.73;;;;;;;13.69;57.44;99042.22;4107224;28;20203;-57
2022/05/14 00:24:58;;;;;;;0.80;0.80;;;;;;;13.67;57.58;99038.06;4103527;28;20254;-56
2022/05/14 00:26:59;;;;;;;1.33;0.90;;;;;;;13.63;57.52;99037.75;4107953;28;20211;-56
2022/05/14 00:29:01;;;;;;;0.70;0.70;;;;;;;13.58;57.88;99042.34;4109876;28;20214;-56
2022/05/14 00:31:03;;;;;;;0.70;0.70;;;;;;;13.47;58.06;99044.16;4105464;28;20241;-57
2022/05/14 00:33:06;;;;;;;1.75;0.95;;;;;;;13.38;58.35;99034.66;4124883;28;20210;-56
2022/05/14 00:35:09;;;;;;;0.85;0.70;;;;;;;13.32;58.38;99035.72;4104771;28;20226;-56
2022/05/14 00:37:11;;;;;;;0.70;0.70;;;;;;;13.32;58.59;99041.22;4120179;28;20245;-56
2022/05/14 00:39:13;;;;;;;0.55;0.55;;;;;;;13.34;58.47;99039.03;4119722;28;20353;-54
2022/05/14 00:41:15;;;;;;;0.88;0.70;;;;;;;13.31;58.36;99036.78;4110256;28;20454;-57
2022/05/14 00:43:17;;;;;;;0.88;0.88;;;;;;;13.27;58.53;99049.38;4111593;28;21328;-56
2022/05/14 00:45:23;;;;;;;0.60;0.60;;;;;;;13.23;58.52;99048.22;4104004;28;20279;-55
2022/05/14 00:47:26;;;;;;;0.80;0.80;;;;;;;13.21;58.65;99044.91;4105403;28;20297;-56
2022/05/14 00:49:29;;;;;;;6.63;0.77;;;;;;;13.22;58.32;99043.81;4111470;28;20215;-55
2022/05/14 00:51:31;;;;;;;0.75;0.60;;;;;;;13.21;58.18;99044.06;4093000;28;20223;-56
2022/05/14 00:53:39;;;;;;;0.70;0.70;;;;;;;13.21;58.66;99044.91;4107332;28;20282;-56
2022/05/14 00:55:42;;;;;;;1.58;1.00;;;;;;;13.16;58.96;99041.25;4107318;28;20213;-56
2022/05/14 00:57:45;;;;;;;0.60;0.60;;;;;;;13.09;58.65;99046.91;4106592;28;20242;-57
2022/05/14 00:59:47;;;;;;;0.60;0.60;;;;;;;13.03;59.03;99050.69;4120557;28;20218;-56
2022/05/14 01:01:49;;;;;;;1.17;0.82;;;;;;;12.93;59.52;99042.28;4118122;28;20424;-56
2022/05/14 01:03:51;;;;;;;0.63;0.60;;;;;;;12.91;59.80;99049.09;4121680;28;20644;-56
2022/05/14 01:05:54;;;;;;;0.82;0.82;;;;;;;12.89;59.55;99043.84;4107644;28;20226;-56
2022/05/14 01:07:56;;;;;;;0.90;0.90;;;;;;;12.91;59.74;99049.91;4107338;28;20697;-56
2022/05/14 01:10:00;;;;;;;1.10;0.80;;;;;;;12.90;59.88;99052.94;4104693;28;20271;-57
2022/05/14 01:12:03;;;;;;;1.13;1.02;;;;;;;12.85;59.89;99050.91;4120023;28;20233;-57
2022/05/14 01:14:05;;;;;;;0.77;0.77;;;;;;;12.80;60.04;99045.38;4103817;28;20565;-57
2022/05/14 01:16:06;;;;;;;0.63;0.60;;;;;;;12.71;59.91;99044.09;4086179;28;20195;-56
2022/05/14 01:18:08;;;;;;;0.70;0.70;;;;;;;12.66;60.24;99045.94;4104917;28;20413;-56
2022/05/14 01:20:11;;;;;;;1.10;0.80;;;;;;;12.61;60.47;99043.97;4106345;28;20258;-56
2022/05/14 01:22:34;;;;;;;0.70;0.70;;;;;;;12.49;60.92;99048.69;4107200;28;20211;-56
2022/05/14 01:27:05;;;;;;;1.42;1.33;;;;;;;12.47;60.28;99047.28;4107957;28;20238;-55
2022/05/14 01:29:10;;;;;;;0.60;0.60;;;;;;;12.47;60.17;99048.13;4107294;28;20273;-55
2022/05/14 01:31:11;;;;;;;0.80;0.80;;;;;;;12.50;60.04;99042.13;4120578;28;20261;-56
2022/05/14 01:33:13;;;;;;;1.33;0.93;;;;;;;12.53;60.16;99044.38;4123612;28;22383;-56
2022/05/14 01:35:16;;;;;;;0.70;0.70;;;;;;;12.54;60.17;99043.28;4107892;28;20203;-56
2022/05/14 01:37:20;;;;;;;0.73;0.73;;;;;;;12.54;59.82;99051.53;4120165;28;21544;-57
2022/05/14 01:39:23;;;;;;;1.98;1.13;;;;;;;12.48;60.50;99037.97;4121662;28;20332;-56
2022/05/14 01:41:24;;;;;;;0.70;0.70;;;;;;;12.43;60.35;99044.19;4107037;28;20273;-57
2022/05/14 01:43:27;;;;;;;0.95;0.90;;;;;;;12.38;60.60;99041.34;4102937;28;20238;-56
2022/05/14 01:45:28;;;;;;;0.82;0.82;;;;;;;12.29;60.62;99039.28;4121074;28;20225;-56
2022/05/14 01:47:34;;;;;;;1.27;1.17;;;;;;;12.20;61.04;99033.38;4123018;28;20217;-57
2022/05/14 01:49:36;;;;;;;0.80;0.80;;;;;;;12.10;61.09;99035.94;4123855;28;21159;-56
2022/05/14 01:51:38;;;;;;;0.70;0.70;;;;;;;12.09;61.11;99042.50;4124131;28;20268;-56
2022/05/14 01:53:40;;;;;;;0.90;0.90;;;;;;;12.05;61.18;99037.75;4125864;28;20281;-55
2022/05/14 01:55:42;;;;;;;1.20;0.90;;;;;;;12.03;61.23;99037.19;4124917;28;20231;-55
2022/05/14 01:57:43;;;;;;;1.00;1.00;;;;;;;12.02;61.30;99035.50;4124075;28;20268;-57
2022/05/14 01:59:45;;;;;;;1.00;1.00;;;;;;;11.98;61.52;99031.59;4106079;28;20306;-56
2022/05/14 02:01:47;;;;;;;0.90;0.90;;;;;;;11.94;61.52;99036.75;4121723;28;20243;-55
2022/05/14 02:03:55;;;;;;;0.70;0.70;;;;;;;11.82;61.82;99038.72;4106720;28;21798;-57
2022/05/14 02:05:57;;;;;;;0.85;0.85;;;;;;;11.78;61.81;99034.78;4105668;28;20219;-55
2022/05/14 02:07:59;;;;;;;0.77;0.77;;;;;;;11.77;61.80;99033.13;4107472;28;20207;-55
2022/05/14 02:10:00;;;;;;;0.93;0.85;;;;;;;11.73;61.96;99031.97;4104372;28;20213;-57
2022/05/14 02:12:02;;;;;;;0.80;0.80;;;;;;;11.65;62.23;99032.31;4122633;28;20672;-55
2022/05/14 02:14:05;;;;;;;1.20;1.08;;;;;;;11.63;62.19;99030.94;4119286;28;20710;-55
2022/05/14 02:16:06;;;;;;;0.77;0.77;;;;;;;11.64;62.11;99041.63;4102884;28;20207;-56
2022/05/14 02:18:08;;;;;;;0.80;0.80;;;;;;;11.61;62.20;99024.84;4106521;28;20222;-56
2022/05/14 02:20:10;;;;;;;0.80;0.80;;;;;;;11.59;62.00;99033.31;4102827;28;20206;-56
2022/05/14 02:22:12;;;;;;;1.52;1.20;;;;;;;11.53;62.34;99023.31;4103104;28;20210;-55
2022/05/14 02:24:14;;;;;;;1.00;0.82;;;;;;;11.47;62.40;99034.38;4120752;28;20328;-56
2022/05/14 02:26:17;;;;;;;0.95;0.90;;;;;;;11.45;62.36;99025.59;4119609;28;20234;-55
2022/05/14 02:28:19;;;;;;;0.73;0.73;;;;;;;11.43;62.35;99023.09;4119501;28;20229;-55
2022/05/14 02:30:20;;;;;;;1.42;0.90;;;;;;;11.44;62.35;99018.44;4099177;28;20239;-57
2022/05/14 02:32:25;;;;;;;1.08;1.00;;;;;;;11.43;62.27;99028.56;4116801;28;20240;-56
2022/05/14 02:34:26;;;;;;;0.70;0.70;;;;;;;11.42;62.38;99026.91;4118477;28;20210;-55
2022/05/14 02:36:28;;;;;;;0.75;0.75;;;;;;;11.40;62.40;99023.59;4123041;28;20229;-56
2022/05/14 02:38:32;;;;;;;0.88;0.88;;;;;;;11.38;62.31;99025.72;4109922;28;20217;-56
2022/05/14 02:40:34;;;;;;;3.88;1.17;;;;;;;11.38;62.04;99030.38;4108508;28;20289;-55
2022/05/14 02:42:35;;;;;;;0.70;0.70;;;;;;;11.30;62.38;99034.31;4121474;28;20198;-55
2022/05/14 02:44:37;;;;;;;0.82;0.80;;;;;;;11.27;62.54;99029.34;4103441;28;20287;-56
2022/05/14 02:46:39;;;;;;;1.08;1.00;;;;;;;11.22;62.44;99029.22;4122696;28;20683;-56
2022/05/14 02:48:41;;;;;;;1.38;0.98;;;;;;;11.22;62.54;99037.44;4105548;28;20771;-56
2022/05/14 02:50:43;;;;;;;0.75;0.75;;;;;;;11.15;62.87;99036.75;4099275;28;20331;-55
2022/05/14 02:52:44;;;;;;;1.00;0.90;;;;;;;11.14;62.96;99039.72;4107994;28;20269;-56
2022/05/14 02:54:46;;;;;;;7.07;1.10;;;;;;;11.12;62.57;99037.22;4107173;28;20758;-56
2022/05/14 02:56:48;;;;;;;0.95;0.95;;;;;;;11.16;62.55;99043.88;4102136;28;20661;-56
2022/05/14 02:59:08;;;;;;;1.15;1.13;;;;;;;11.18;62.33;99040.91;4123858;28;20213;-55
2022/05/14 03:01:10;;;;;;;0.90;0.90;;;;;;;11.22;62.38;99042.06;4120184;28;20233;-55
2022/05/14 03:03:11;;;;;;;1.35;1.27;;;;;;;11.21;62.38;99038.53;4107291;28;20207;-56
2022/05/14 03:05:15;;;;;;;1.52;1.42;;;;;;;11.17;62.46;99040.06;4121816;28;20325;-57
2022/05/14 03:07:17;;;;;;;0.93;0.82;;;;;;;11.16;62.32;99046.63;4121401;28;20687;-57
2022/05/14 03:09:19;;;;;;;1.40;1.08;;;;;;;11.22;62.43;99047.56;4108765;28;20234;-56
2022/05/14 03:11:21;;;;;;;1.10;1.05;;;;;;;11.23;62.19;99039.09;4123634;28;20244;-56
2022/05/14 03:13:23;;;;;;;1.15;1.05;;;;;;;11.21;62.43;99037.66;4123068;28;20201;-57
2022/05/14 03:15:25;;;;;;;0.77;0.77;;;;;;;11.13;62.46;99038.91;4123135;28;20241;-55
2022/05/14 03:17:27;;;;;;;1.10;1.10;;;;;;;11.07;62.77;99039.84;4108254;28;20225;-55
2022/05/14 03:19:29;;;;;;;0.88;0.77;;;;;;;10.99;62.69;99037.50;4106494;28;20667;-55
2022/05/14 03:21:31;;;;;;;0.65;0.65;;;;;;;10.97;62.67;99039.63;4121018;28;20229;-56
2022/05/14 03:23:32;;;;;;;1.20;1.10;;;;;;;10.94;63.19;99040.09;4101605;28;20206;-55
2022/05/14 03:25:37;;;;;;;0.85;0.80;;;;;;;10.83;63.38;99046.41;4108382;28;20234;-57
2022/05/14 03:27:39;;;;;;;1.00;0.90;;;;;;;10.79;63.97;99042.47;4107286;28;20215;-56
2022/05/14 03:29:40;;;;;;;1.02;0.82;;;;;;;10.79;63.12;99047.94;4102805;28;20229;-55
2022/05/14 03:31:42;;;;;;;1.85;1.52;;;;;;;10.82;62.91;99054.03;4120881;28;20225;-56
2022/05/14 03:33:44;;;;;;;0.80;0.80;;;;;;;10.83;63.09;99054.63;4101377;28;20235;-56
2022/05/14 03:35:46;;;;;;;1.25;1.20;;;;;;;10.83;63.11;99057.38;4122793;28;20304;-55
2022/05/14 03:37:48;;;;;;;1.38;1.05;;;;;;;10.86;63.06;99047.84;4120514;28;20698;-56
2022/05/14 03:39:50;;;;;;;1.00;1.00;;;;;;;10.88;63.12;99055.84;4123719;28;20201;-56
2022/05/14 03:41:51;;;;;;;1.35;1.25;;;;;;;10.77;63.27;99052.03;4096394;28;20261;-56
2022/05/14 03:43:53;;;;;;;1.25;1.00;;;;;;;10.73;63.34;99059.03;4124917;28;20288;-56
2022/05/14 03:45:55;;;;;;;1.10;1.10;;;;;;;10.69;63.69;99062.50;4124797;28;20218;-56
2022/05/14 03:48:03;;;;;;;1.00;1.00;;;;;;;10.69;63.38;99059.75;4109342;28;20217;-56
2022/05/14 03:50:05;;;;;;;1.45;1.15;;;;;;;10.69;63.34;99067.97;4113764;28;20206;-56
2022/05/14 03:52:08;;;;;;;1.60;1.27;;;;;;;10.69;63.04;99065.22;4125863;28;20389;-55
2022/05/14 03:54:10;;;;;;;1.05;0.95;;;;;;;10.71;63.02;99065.81;4111582;28;20266;-55
2022/05/14 03:56:12;;;;;;;1.52;1.42;;;;;;;10.72;62.99;99065.59;4110605;28;20241;-56
2022/05/14 03:58:13;;;;;;;1.00;0.93;;;;;;;10.76;62.93;99068.69;4109586;28;20243;-56
2022/05/14 04:00:16;;;;;;;0.80;0.80;;;;;;;10.76;63.08;99071.41;4124302;28;20827;-56
2022/05/14 04:02:20;;;;;;;1.30;1.20;;;;;;;10.76;63.16;99066.75;4110631;28;20226;-55
2022/05/14 04:04:22;;;;;;;1.33;1.23;;;;;;;10.72;62.70;99072.94;4129185;28;20214;-56
2022/05/14 04:06:24;;;;;;;1.10;1.10;;;;;;;10.67;63.02;99061.91;4109545;28;20230;-54
2022/05/14 04:08:26;;;;;;;1.63;1.52;;;;;;;10.61;62.97;99071.06;4106805;28;20434;-57
2022/05/14 04:10:29;;;;;;;1.08;1.08;;;;;;;10.57;63.10;99064.38;4093031;28;20223;-55
2022/05/14 04:12:31;;;;;;;1.40;1.30;;;;;;;10.57;63.29;99064.38;4106214;28;20207;-56
2022/05/14 04:14:33;;;;;;;1.30;0.98;;;;;;;10.59;63.12;99068.56;4109255;28;20659;-55
2022/05/14 04:16:34;;;;;;;0.98;0.98;;;;;;;10.64;63.24;99070.56;4107184;28;20238;-56
2022/05/14 04:18:36;;;;;;;1.02;1.02;;;;;;;10.65;62.94;99066.75;4111145;28;20580;-56
2022/05/14 04:20:38;;;;;;;1.52;1.25;;;;;;;10.68;63.36;99072.59;4105941;28;20235;-55
2022/05/14 04:22:40;;;;;;;1.02;1.02;;;;;;;10.69;63.37;99073.44;4122161;28;20205;-56
2022/05/14 04:24:41;;;;;;;0.85;0.80;;;;;;;10.69;63.33;99063.31;4106741;28;20301;-57
2022/05/14 04:26:43;;;;;;;1.48;1.38;;;;;;;10.68;63.54;99067.13;4104830;28;20258;-55
2022/05/14 04:28:46;;;;;;;0.93;0.82;;;;;;;10.68;63.40;99060.81;4122905;28;20917;-55
2022/05/14 04:30:48;;;;;;;1.00;0.90;;;;;;;10.60;64.09;99069.38;4105057;28;20265;-55
2022/05/14 04:32:50;;;;;;;5.35;1.30;;;;;;;10.55;63.61;99061.06;4119737;28;20236;-56
2022/05/14 04:34:51;;;;;;;1.00;1.00;;;;;;;10.57;63.61;99064.38;4104629;28;20325;-56
2022/05/14 04:36:55;;;;;;;1.10;1.00;;;;;;;10.57;63.77;99058.91;4120000;28;20313;-55
2022/05/14 04:38:57;;;;;;;1.60;0.90;;;;;;;10.50;64.44;99052.72;4125828;28;20386;-56
2022/05/14 04:40:59;;;;;;;1.65;1.23;;;;;;;10.45;64.54;99060.78;4108241;28;20230;-54
2022/05/14 04:43:05;;;;;;;1.08;1.00;;;;;;;10.39;64.68;99061.72;4108181;28;20234;-55
2022/05/14 04:45:09;;;;;;;1.20;1.10;;;;;;;10.35;64.73;99055.09;4123366;28;20206;-56
2022/05/14 04:47:12;;;;;;;1.00;1.00;;;;;;;10.37;64.76;99058.41;4118986;28;20262;-56
2022/05/14 04:49:13;;;;;;;1.67;1.10;;;;;;;10.38;64.71;99046.38;4089641;28;20294;-55
2022/05/14 04:51:15;;;;;;;1.05;1.05;;;;;;;10.43;64.87;99062.94;4109167;28;20287;-56
2022/05/14 04:53:17;;;;;;;1.00;1.00;;;;;;;10.44;65.29;99064.59;4124206;28;20623;-55
2022/05/14 04:55:18;;;;;;;0.82;0.82;;;;;;;10.49;64.73;99056.53;4106594;28;20214;-55
2022/05/14 04:57:20;;;;;;;3.13;0.98;;;;;;;10.57;64.79;99059.75;4101789;28;20693;-56
2022/05/14 04:59:22;;;;;;;1.17;1.15;;;;;;;10.59;64.48;99056.75;4122274;28;20241;-55
2022/05/14 05:01:23;;;;;;;0.80;0.80;;;;;;;10.63;64.95;99057.97;4123187;28;20225;-57
2022/05/14 05:03:27;;;;;;;1.48;1.38;;;;;;;10.64;65.11;99060.47;4127169;28;20210;-56
2022/05/14 05:05:29;;;;;;;1.13;1.13;;;;;;;10.65;64.95;99072.22;4127426;28;20206;-55
2022/05/14 05:07:31;;;;;;;1.00;1.00;;;;;;;10.71;64.73;99074.03;4123882;28;20730;-56
2022/05/14 05:09:33;;;;;;;1.23;1.15;;;;;;;10.77;64.19;99072.00;4108629;28;20221;-55
2022/05/14 05:11:35;;;;;;;1.55;1.10;;;;;;;10.84;64.51;99078.19;4089822;28;20705;-57
2022/05/14 05:13:37;;;;;;;2.15;0.85;;;;;;;10.92;64.24;99075.09;4107393;28;20215;-54
2022/05/14 05:15:40;;;;;;;1.05;1.00;;;;;;;11.00;64.25;99074.75;4108653;28;20230;-55
2022/05/14 05:17:41;;;;;;;1.50;1.40;;;;;;;11.05;64.00;99077.59;4124360;28;20218;-55
2022/05/14 05:19:43;;;;;;;1.00;1.00;;;;;;;11.11;63.73;99084.84;4122818;28;20206;-56
2022/05/14 05:21:45;;;;;;;1.02;1.02;;;;;;;11.17;63.79;99089.38;4108005;28;20629;-56
2022/05/14 05:23:47;;;;;;;1.00;1.00;;;;;;;11.23;63.52;99085.66;4104574;28;20203;-56
2022/05/14 05:25:50;;;;;;;1.15;1.10;;;;;;;11.30;63.50;99089.13;4107578;28;20595;-57
2022/05/14 05:27:51;;;;;;;1.25;1.17;;;;;;;11.31;63.86;99090.78;4122278;28;20817;-55
2022/05/14 05:29:53;;;;;;;1.27;1.17;;;;;;;11.35;63.94;99085.66;4108228;28;20211;-57
2022/05/14 05:31:55;;;;;;;1.00;1.00;;;;;;;11.44;65.27;99093.25;4106241;28;20306;-56
2022/05/14 05:33:57;;;;;;;1.08;0.98;;;;;;;11.59;64.94;99090.91;4108561;28;20242;-57
2022/05/14 05:35:59;;;;;;;1.25;1.15;;;;;;;11.52;64.97;99095.63;4123304;28;20206;-56
2022/05/14 05:38:01;;;;;;;1.05;0.95;;;;;;;11.91;65.19;99092.06;4100067;28;20238;-56
2022/05/14 05:40:03;;;;;;;1.25;1.15;;;;;;;12.21;64.53;99092.66;4103055;28;20210;-55
2022/05/14 05:42:05;;;;;;;1.77;1.30;;;;;;;12.34;63.61;99089.63;4121844;28;20237;-56
2022/05/14 05:44:07;;;;;;;1.40;1.30;;;;;;;12.42;63.70;99091.09;4103587;28;20237;-57
2022/05/14 05:46:09;;;;;;;1.40;1.33;;;;;;;12.34;63.19;99092.34;4105874;28;20214;-56
2022/05/14 05:48:11;;;;;;;1.38;1.27;;;;;;;12.65;64.04;99094.53;4108637;28;20673;-56
2022/05/14 05:50:13;;;;;;;1.27;1.17;;;;;;;12.72;62.74;99100.72;4095999;28;20207;-56
2022/05/14 05:52:14;;;;;;;1.27;1.17;;;;;;;12.87;62.85;99098.22;4102175;28;20211;-57
2022/05/14 05:56:55;;;;;;;0.80;0.80;;;;;;;13.40;61.52;99094.91;4111696;28;20214;-55
2022/05/14 05:58:57;;;;;;;0.82;0.82;;;;;;;13.60;61.62;99103.41;4108185;28;20234;-56
2022/05/14 06:00:59;;;;;;;2.72;1.40;;;;;;;13.72;61.69;99104.97;4107128;28;20645;-56
2022/05/14 06:03:01;;;;;;;0.90;0.90;;;;;;;13.75;60.89;99107.22;4121558;28;20529;-57
2022/05/14 06:05:05;;;;;;;1.20;1.00;;;;;;;13.86;60.46;99100.75;4100526;28;20262;-57
2022/05/14 06:07:07;;;;;;;1.02;0.93;;;;;;;14.06;61.10;99098.25;4121360;28;20229;-57
2022/05/14 06:09:12;;;;;;;1.63;1.17;;;;;;;14.20;60.66;99105.03;4120392;28;21216;-56
2022/05/14 06:11:14;;;;;;;1.30;1.20;;;;;;;14.23;60.22;99106.44;4120029;28;20218;-56
2022/05/14 06:13:17;;;;;;;4.88;1.05;;;;;;;14.30;59.69;99105.13;4105129;28;20210;-56
2022/05/14 06:15:20;;;;;;;2.88;0.98;;;;;;;14.39;59.59;99109.09;4106659;28;20215;-57
2022/05/14 06:17:24;;;;;;;1.00;0.90;;;;;;;14.47;59.70;99114.13;4102938;28;20238;-57
2022/05/14 06:19:26;;;;;;;1.60;1.50;;;;;;;14.55;59.92;99102.63;4120295;28;20210;-58
2022/05/14 06:21:28;;;;;;;0.95;0.95;;;;;;;14.48;59.29;99113.03;4102878;28;20235;-57
2022/05/14 06:23:29;;;;;;;1.42;1.10;;;;;;;14.65;58.93;99121.19;4104130;28;20234;-57
2022/05/14 06:25:31;;;;;;;1.33;0.95;;;;;;;14.71;59.31;99107.16;4078986;28;20239;-56
2022/05/14 06:27:33;;;;;;;1.58;1.33;;;;;;;14.74;58.65;99116.84;4121657;28;20596;-57
2022/05/14 06:29:35;;;;;;;1.33;1.20;;;;;;;14.92;59.92;99119.22;4086183;28;20227;-56
2022/05/14 06:31:37;;;;;;;3.97;1.20;;;;;;;14.64;58.87;99116.75;4107415;28;20891;-55
2022/05/14 06:33:41;;;;;;;1.70;1.08;;;;;;;14.87;59.87;99116.41;4102594;28;20210;-55
2022/05/14 06:35:44;;;;;;;1.77;0.98;;;;;;;15.03;59.74;99113.50;4121673;28;20218;-56
2022/05/14 06:37:46;;;;;;;0.93;0.93;;;;;;;15.25;58.75;99119.75;4103542;28;20254;-57
2022/05/14 06:39:48;;;;;;;1.15;1.08;;;;;;;15.37;58.91;99123.16;4102346;28;20215;-55
2022/05/14 06:41:50;;;;;;;1.30;1.20;;;;;;;15.61;58.85;99121.66;4104594;28;20230;-55
2022/05/14 06:43:51;;;;;;;1.85;1.00;;;;;;;15.61;58.77;99124.41;4122421;28;20214;-55
2022/05/14 06:45:53;;;;;;;1.17;1.05;;;;;;;15.78;58.54;99119.56;4102778;28;20214;-57
2022/05/14 06:47:55;;;;;;;0.93;0.85;;;;;;;15.85;58.86;99125.66;4118814;28;20273;-57
2022/05/14 06:49:57;;;;;;;0.88;0.85;;;;;;;16.05;57.68;99122.97;4122432;28;20210;-57
2022/05/14 06:52:01;;;;;;;1.10;1.00;;;;;;;16.29;58.05;99115.88;4103218;28;20265;-55
2022/05/14 06:54:06;;;;;;;1.02;1.02;;;;;;;16.17;57.40;99123.56;4105282;28;20772;-56
2022/05/14 06:56:08;;;;;;;3.95;1.00;;;;;;;16.28;56.98;99130.78;4123431;28;20206;-56
2022/05/14 06:58:14;;;;;;;0.75;0.75;;;;;;;16.49;57.67;99131.72;4112064;28;20203;-56
2022/05/14 07:00:17;;;;;;;0.90;0.85;;;;;;;16.54;57.14;99129.78;4109826;28;20780;-56
2022/05/14 07:02:19;;;;;;;1.50;0.80;;;;;;;16.77;56.17;99129.25;4110915;28;20222;-56
2022/05/14 07:06:41;;;;;;;1.65;1.13;;;;;;;16.88;55.79;99128.16;4111350;28;20641;-57
2022/05/14 07:08:43;;;;;;;2.05;1.63;;;;;;;16.96;56.45;99122.06;4111619;28;20206;-57
2022/05/14 07:10:45;;;;;;;1.00;0.90;;;;;;;17.21;56.22;99124.84;4108830;28;20231;-57
2022/05/14 07:12:46;;;;;;;1.13;1.00;;;;;;;17.12;55.54;99132.03;4125378;28;20207;-55
2022/05/14 07:14:48;;;;;;;1.17;0.70;;;;;;;17.17;54.72;99132.03;4126308;28;20563;-55
2022/05/14 07:16:50;;;;;;;2.05;0.90;;;;;;;17.40;56.58;99125.97;4124762;28;20249;-55
2022/05/14 07:18:52;;;;;;;2.63;0.70;;;;;;;17.50;54.35;99132.31;4126367;28;20210;-56
2022/05/14 07:20:55;;;;;;;1.10;1.00;;;;;;;18.00;54.63;99134.09;4109979;28;20229;-57
2022/05/14 07:22:56;;;;;;;1.23;1.05;;;;;;;17.95;53.11;99134.13;4110888;28;20226;-56
2022/05/14 07:24:58;;;;;;;0.70;0.70;;;;;;;17.81;53.80;99127.53;4109297;28;20214;-56
2022/05/14 07:27:03;;;;;;;0.75;0.73;;;;;;;18.05;54.23;99132.13;4126388;28;20785;-56
2022/05/14 07:29:07;;;;;;;1.13;1.00;;;;;;;18.31;53.80;99130.94;4111881;28;20278;-57
2022/05/14 07:31:09;;;;;;;1.33;0.85;;;;;;;18.28;53.65;99130.66;4108847;28;20231;-56
2022/05/14 07:33:12;;;;;;;1.48;1.35;;;;;;;18.57;52.30;99134.41;4123901;28;20250;-55
2022/05/14 07:35:14;;;;;;;0.57;0.57;;;;;;;18.20;55.08;99131.25;4104941;28;20691;-56
2022/05/14 07:37:27;;;;;;;0.93;0.52;;;;;;;18.41;53.28;99130.91;4125835;28;20229;-56
2022/05/14 07:39:38;;;;;;;1.13;0.70;;;;;;;18.79;53.40;99127.31;4110870;28;20215;-56
2022/05/14 07:41:41;;;;;;;1.45;0.80;;;;;;;19.17;52.35;99133.97;4126968;28;20222;-57
2022/05/14 07:43:46;;;;;;;3.03;0.52;;;;;;;19.29;51.48;99131.66;4109251;28;20207;-56
2022/05/14 07:45:54;;;;;;;0.70;0.60;;;;;;;19.58;51.50;99126.94;4105025;28;20203;-55
2022/05/14 07:47:56;;;;;;;0.77;0.75;;;;;;;19.82;51.53;99136.13;4122975;28;20364;-56
2022/05/14 07:49:59;;;;;;;0.80;0.40;;;;;;;19.85;49.02;99132.78;4109320;28;20214;-55
2022/05/14 07:52:07;;;;;;;0.50;0.50;;;;;;;19.78;49.31;99135.06;4109372;28;20210;-55
2022/05/14 07:54:10;;;;;;;1.30;0.73;;;;;;;20.13;48.88;99129.97;4109437;28;20648;-57
2022/05/14 07:56:12;;;;;;;1.08;0.85;;;;;;;20.54;48.23;99127.47;4110046;28;20218;-56
2022/05/14 07:58:14;;;;;;;0.40;0.40;;;;;;;20.53;48.32;99129.44;4107997;28;20249;-56
2022/05/14 08:00:16;;;;;;;4.22;0.70;;;;;;;20.51;48.31;99126.09;4124845;28;20206;-56
2022/05/14 08:02:31;;;;;;;1.77;0.50;;;;;;;21.02;47.65;99135.38;4109028;28;20210;-56
2022/05/14 08:04:33;;;;;;;0.50;0.40;;;;;;;21.08;47.99;99139.75;4112332;28;20242;-56
2022/05/14 08:06:35;;;;;;;0.65;0.43;;;;;;;20.73;46.87;99131.06;4109170;28;20584;-55
2022/05/14 08:08:37;;;;;;;0.85;0.50;;;;;;;20.91;47.76;99133.88;4110086;28;20226;-56
2022/05/14 08:10:39;;;;;;;0.30;0.30;;;;;;;21.22;45.63;99129.50;4103649;28;20779;-55
2022/05/14 08:12:43;;;;;;;0.50;0.50;;;;;;;21.56;47.33;99124.41;4124916;28;20612;-56
2022/05/14 08:14:45;;;;;;;0.40;0.40;;;;;;;21.76;46.90;99134.38;4110829;28;20210;-56
2022/05/14 08:16:46;;;;;;;1.08;0.68;;;;;;;21.51;45.63;99126.47;4125092;28;20217;-56
2022/05/14 08:18:48;;;;;;;0.38;0.30;;;;;;;21.22;46.86;99123.91;4127630;28;20217;-57
2022/05/14 08:20:51;;;;;;;0.95;0.80;;;;;;;21.95;46.55;99121.19;4106467;28;20238;-56
2022/05/14 08:25:14;;;;;;;1.17;0.43;;;;;;;21.74;46.23;99125.50;4108899;28;20276;-56
2022/05/14 08:27:17;;;;;;;0.40;0.40;;;;;;;21.64;44.89;99120.13;4110414;28;20297;-56
2022/05/14 08:29:20;;;;;;;0.65;0.65;;;;;;;21.69;45.13;99120.03;4124623;28;20588;-55
2022/05/14 08:31:24;;;;;;;0.60;0.60;;;;;;;21.25;44.77;99119.69;4126201;28;20230;-55
2022/05/14 08:33:27;;;;;;;0.60;0.50;;;;;;;20.70;45.09;99124.16;4126814;28;20244;-57
2022/05/14 08:35:29;;;;;;;0.50;0.50;;;;;;;20.22;46.11;99119.00;4126226;28;20217;-56
2022/05/14 08:37:31;;;;;;;1.63;0.80;;;;;;;20.26;46.47;99125.63;4109291;28;20650;-56
2022/05/14 08:39:32;;;;;;;2.10;0.80;;;;;;;20.92;47.64;99118.03;4109100;28;20202;-55
2022/05/14 08:41:37;;;;;;;0.68;0.68;;;;;;;21.37;45.73;99115.28;4110679;28;20318;-55
2022/05/14 08:43:40;;;;;;;0.50;0.50;;;;;;;21.28;44.37;99107.94;4106282;28;20221;-56
2022/05/14 08:45:43;;;;;;;0.43;0.40;;;;;;;21.46;46.75;99113.47;4121435;28;20209;-56
2022/05/14 08:47:54;;;;;;;0.90;0.90;;;;;;;21.96;45.58;99117.25;4122274;28;20240;-56
2022/05/14 08:49:57;;;;;;;2.50;0.80;;;;;;;21.56;45.49;99107.72;4108454;28;20206;-56
2022/05/14 08:52:10;;;;;;;0.63;0.63;;;;;;;21.89;46.09;99111.28;4127864;28;20291;-57
2022/05/14 08:54:12;;;;;;;1.00;0.50;;;;;;;22.44;47.01;99094.22;4091747;28;20677;-56
2022/05/14 08:56:23;;;;;;;1.48;0.60;;;;;;;22.58;46.36;99102.59;4107161;28;20206;-57
2022/05/14 08:58:40;;;;;;;0.50;0.50;;;;;;;22.68;43.95;99080.03;4121596;28;20209;-56
2022/05/14 09:00:41;;;;;;;1.10;0.45;;;;;;;22.68;44.02;99086.44;4124317;28;21614;-56
2022/05/14 09:02:48;;;;;;;3.83;0.77;;;;;;;22.79;45.36;99087.03;4124711;28;20209;-56
2022/05/14 09:05:00;;;;;;;1.20;0.70;;;;;;;22.86;42.34;99088.25;4123895;28;20213;-56
2022/05/14 09:07:02;;;;;;;0.50;0.50;;;;;;;22.82;42.68;99086.38;4111635;28;20224;-55
2022/05/14 09:09:05;;;;;;;1.52;1.30;;;;;;;23.18;44.15;99090.81;4127317;28;20225;-56
2022/05/14 09:11:25;;;;;;;1.17;0.75;;;;;;;23.47;43.74;99087.53;4111616;28;20233;-56
2022/05/14 09:13:28;;;;;;;1.35;0.70;;;;;;;23.65;43.31;99090.09;4113330;28;20203;-57
2022/05/14 09:15:32;;;;;;;1.02;0.65;;;;;;;24.07;44.19;99093.13;4112364;28;20257;-55
2022/05/14 09:17:34;;;;;;;1.02;0.70;;;;;;;24.02;43.20;99098.06;4108583;28;20226;-57
2022/05/14 09:19:38;;;;;;;1.00;1.00;;;;;;;23.75;42.79;99095.44;4102320;28;20269;-56
2022/05/14 09:21:48;;;;;;;1.92;1.20;;;;;;;23.87;42.66;99094.84;4107549;28;20351;-56
2022/05/14 09:23:59;;;;;;;0.43;0.43;;;;;;;23.30;40.34;99087.47;4118663;28;20204;-56
2022/05/14 09:26:09;;;;;;;2.10;1.25;;;;;;;22.92;41.75;99088.94;4087463;28;20230;-56
2022/05/14 09:28:13;;;;;;;0.95;0.82;;;;;;;23.11;44.07;99084.00;4124654;28;20271;-56
2022/05/14 09:30:26;;;;;;;1.60;1.30;;;;;;;23.40;41.34;99087.19;4104531;28;20198;-55
2022/05/14 09:32:32;;;;;;;1.67;1.55;;;;;;;23.49;43.45;99096.44;4104742;28;20787;-56
2022/05/14 09:34:34;;;;;;;3.15;1.60;;;;;;;23.47;43.74;99093.13;4125387;28;20269;-55
2022/05/14 09:36:37;;;;;;;2.47;2.28;;;;;;;23.73;42.45;99086.56;4124616;28;20699;-56
2022/05/14 09:38:38;;;;;;;1.20;0.68;;;;;;;23.00;41.43;99088.19;4121954;28;20789;-56
2022/05/14 09:40:40;;;;;;;1.10;0.68;;;;;;;23.05;41.31;99082.47;4125246;28;20229;-55
2022/05/14 09:42:46;;;;;;;0.52;0.38;;;;;;;23.01;42.02;99081.44;4103852;28;20206;-55
2022/05/14 09:44:50;;;;;;;0.40;0.40;;;;;;;22.45;42.31;99089.50;4125318;28;20701;-56
2022/05/14 09:47:13;;;;;;;4.05;0.40;;;;;;;21.80;42.65;99085.28;4122694;28;20237;-57
2022/05/14 09:49:25;;;;;;;0.60;0.60;;;;;;;21.92;42.33;99086.41;4124812;28;20764;-55
2022/05/14 09:51:54;;;;;;;0.98;0.50;;;;;;;21.41;42.09;99070.94;4121451;28;20279;-56